saint omer (62) - B

Date : 09/09/2012
Distance : 2,300 km

Place Nom Licence Catégorie Club Temps min/km CN à J-60 Points Différence Nouveau CN
1 LOTERIE Laurine 7045 D20 5907NO 0:15:27 6'43 5799 5322 -477 5669
2 DESRUMAUX Marie 14227 D21 5906NO 0:16:26 7'08 5140 5003 -137 5127
3 GERBEAUX Nathanaëlle 18312 D20 7807IF 0:17:37 7'39 5539 4667 -872 5371
4 SANCHEZ Marlene 15247 D35 6208NO 0:17:44 7'42 4060 4637 +577 3950
5 LAMINETTE Pauline 14911 D20 5907NO 0:17:52 7'46 3930 4602 +672 3974
6 VADUREL Pauline 19241 D21 5907NO 0:18:07 7'52 4752 4539 -213 4936
7 FINAS Celine 8445 D21 5907NO 0:18:15 7'56 4990 4505 -485 4909
8 DESRUMAUX Celine 15795 D35 5906NO 0:18:45 8'09 4293 4385 +92 4249
9 MERCIER Agnès 23079 D21 5907NO 0:19:52 8'38 4452 4139 -313 4489
10 ROBYN Laurence 10766 D40 5906NO 0:19:54 8'39 4542 4132 -410 4646
11 VANDOMME Elodie 23560 D21 6208NO 0:20:02 8'42 3934 4104 +170 4076
12 ROLIN Charlotte 23947 D35 6208NO 0:20:16 8'48 3384 4057 +673 3230
13 DUBREUCQ Marie 25100 D21 5906NO 0:20:48 9'02 3515 3953 +438 3798
14 ASTOLFI Judith 21418 D40 5909NO 0:20:58 9'06 3629 3922 +293 3678
15 DURIEZ Caroline 24170 D21 6208NO 0:21:13 9'13 3849 3875 +26 3862
16 CIRAUDO Andrea 15582 D20 5907NO 0:21:42 9'26 3710 3789 +79 3822
17 ROUX Catherine 13270 D40 6205NO 0:22:39 9'50 4058 3630 -428 4115
18 SMIRNOV Alexandra 9631 D21 5906NO 0:22:44 9'53 3617 0
19 LANQUETIN Céline 18611 D20 5907NO 0:22:51 9'56 3457 3598 +141 3360
20 GOURLAIN Marguerite-marie 19155 D40 6205NO 0:23:03 10'01 3240 3567 +327 2771
21 BOULANGER Isabelle 10639 D55 5907NO 0:24:26 10'37 3240 3365 +125 3366
22 PRUVOST Virginie 25881 D40 6208NO 0:24:42 10'44 1946 3329 +1383 2019
23 VIEQUE Karine 25018 D35 6208NO 0:26:09 11'22 3631 3144 -487 3631
24 PECQUEUR Sylvie 20425 D50 5906NO 0:27:00 11'44 2780 3045 +265 2926
25 DESSAILLY Aurélie 26339 D35 5909NO 0:27:28 11'56 1202 2994 +1792 1500
26 LAMINETTE M-Odile 17201 D50 5907NO 0:28:18 12'18 2601 2905 +304 2726
27 BOUCHEZ Marie-Pascale 24241 D40 6208NO 0:30:11 13'07 2548 2724 +176 1557
28 POULAIN Odile 1948 D50 5908NO 0:31:45 13'48 3158 2590 -568 3165
29 MIGNEAULT Francine 25523 D21 5906NO 0:32:16 14'01 0 2548 2415
30 CLAVEL Nathalie 22803 D40 5907NO 0:33:28 14'33 2260 2457 +197 2342
31 TORZ-DRUON Magali 10081 D60 5906NO 0:34:40 15'04 2478 2372 -106 2338
32 SZYMANOWSKI Catherine 14664 D45 6208NO 0:35:04 15'14 1360 2345 +985 1524
33 BEN KHALED Isabelle 13761 D55 5908NO 0:35:10 15'17 2150 2338 +188 1987
34 KALAIDINA Elizaveta 26568 D21 5906NO 0:35:18 15'20 2329 0
35 JUDAS Sylvaine 13635 D55 6208NO 0:37:54 16'28 2205 2169 -36 1927
36 BELLENGIER Sabine 25381 D35 6208NO 0:40:26 17'34 1403 2034 +631 1614
37 MINET Sylvaine 25878 D40 6208NO 0:43:50 19'03 1629 1876 +247 1733
38 RIMETZ Marcelline 22235 D60 6208NO 0:46:33 20'14 1983 1766 -217 2076
39 LUDEWIG-JAMES Carol 15894 D70 5907NO 0:49:21 21'27 2136 1666 -470 2070
40 GERBEAUX Marie-jeanne 22417 D55 6205NO 0:51:51 22'32 3209 1586 -1623 3287